Airfield :
LOGIN :

Register | Disclaimer

   EN    FR    IT 

 










Legend :    VFR   Marginal VFR   IFR   Intensive IFR   Very Intensive IFR
Visi :
Ceiling :
>= 8 km
>= 3000ft
5 to 8 km
1000 to 3000 ft
1500m to 5 km
500 to 1000 ft
800 to 1500m
200 to 500 ft
< 800m
< 200 ft
Symbols :   Thunderstorms  Fog  Heavy snow  Heavy precipitations  Wind > 20 kt
SIGMETs :     Misc.  Thunderstorms  Icing  Turbulence  Mountain Waves  Volcanic Ashes






- Airport Elevation : 257 ft
- IATA code : MAN


EGCC - Manchester

CURRENT METAR :
  • 131650Z AUTO 21004KT 180V270 9999 SCT038 BKN048 24/16 Q1023 NOSIG

EXPIRED METARs :
  • 131620Z AUTO 19004KT 150V230 9999 SCT037 SCT048 24/15 Q1024 NOSIG
  • 131550Z AUTO 20004KT 160V240 9999 SCT045 24/15 Q1024
  • 131520Z AUTO VRB03KT 9999 BKN037 23/15 Q1025 NOSIG
  • 131450Z AUTO VRB03KT 9999 OVC036 23/15 Q1025 NOSIG
  • 131420Z AUTO VRB02KT 9999 OVC038 23/15 Q1025 NOSIG

TAF TAF EGCC
Valid from the 13 at 12:00 until the 14 at 18:00 UTC


131054Z 1312/1418 30009KT 9999 SCT035
PROB30 1401/1404 8000
BECMG 1404/1408 BKN014
TEMPO 1406/1411 6000 RA
PROB30
TEMPO 1407/1410 4000 RADZ BKN006
BECMG 1408/1412 FEW045
ATIS : +44 161 499 2324



MET'MAP, your aeronautical weather chart ! - Copyright ORBIFLY December 2007 - Disclaimer

ORBIFLY MET'MAP TEAM :

Programming & Development : Alexandra Zaïnal
Concept & original design : Baudouin d'Aumeries
Assistance for programming : Marc-Olivier Méhu
Technical & hardware support : Manuel Goepfert

Contact : metmap@orbifly.com




SOURCES & CREDITS :

   NOAA